Time;durP1;ratioP1;P1;durP2;ratioP2;P2;SDS_P1;SDS_P2;PMS_P1;PMS_P2;Temp;Humidity;BMP_temperature;BMP_pressure;BME280_temperature;BME280_humidity;BME280_pressure;Samples;Min_cycle;Max_cycle;Signal;HPM_P1;HPM_P2
2022/01/23 00:00:40;;;;;;;0.10;0.10;;;4.40;99.90;;;;;;5040003;28;20032;-69
2022/01/23 00:03:13;;;;;;;0.10;0.10;;;4.40;99.90;;;;;;5034645;28;20071;-69
2022/01/23 00:05:42;;;;;;;0.10;0.10;;;4.40;99.90;;;;;;5036157;28;20029;-70
2022/01/23 00:08:09;;;;;;;0.10;0.10;;;4.40;99.90;;;;;;5034116;28;20287;-70
2022/01/23 00:10:35;;;;;;;0.10;0.10;;;4.40;99.90;;;;;;5024394;28;20037;-68
2022/01/23 00:13:11;;;;;;;0.10;0.10;;;4.40;99.90;;;;;;5026005;28;20382;-69
2022/01/23 00:18:22;;;;;;;0.10;0.10;;;4.50;99.90;;;;;;5022946;28;20578;-69
2022/01/23 00:20:48;;;;;;;0.10;0.10;;;4.50;99.90;;;;;;5026794;28;20034;-70
2022/01/23 00:31:29;;;;;;;0.10;0.10;;;4.60;99.90;;;;;;5014113;28;20036;-69
2022/01/23 00:33:55;;;;;;;0.10;0.10;;;4.60;99.90;;;;;;5030524;28;20499;-69
2022/01/23 00:36:25;;;;;;;0.10;0.10;;;4.60;99.90;;;;;;5032684;28;20116;-69
2022/01/23 00:38:51;;;;;;;0.10;0.10;;;4.60;99.90;;;;;;5031703;28;20502;-69
2022/01/23 00:41:17;;;;;;;1.33;0.90;;;4.60;99.90;;;;;;5028125;28;20048;-69
2022/01/23 00:43:44;;;;;;;0.10;0.10;;;4.60;99.90;;;;;;5027796;28;20024;-68
2022/01/23 00:46:23;;;;;;;0.10;0.10;;;4.60;99.90;;;;;;5020966;28;20127;-69
2022/01/23 00:51:35;;;;;;;0.20;0.20;;;4.60;99.90;;;;;;5013490;28;20472;-69
2022/01/23 00:54:03;;;;;;;0.10;0.10;;;4.60;99.90;;;;;;5012777;28;20108;-69
2022/01/23 00:56:29;;;;;;;0.00;0.00;;;4.60;99.90;;;;;;5012295;28;20479;-69
2022/01/23 00:58:55;;;;;;;0.10;0.10;;;4.60;99.90;;;;;;5034303;23;20182;-64
2022/01/23 01:01:21;;;;;;;0.10;0.10;;;4.60;99.90;;;;;;5070661;28;20067;-66
2022/01/23 01:03:47;;;;;;;0.10;0.10;;;4.60;99.90;;;;;;5070483;28;20062;-65
2022/01/23 01:06:15;;;;;;;0.20;0.20;;;4.60;99.90;;;;;;5065831;28;20032;-65
2022/01/23 01:08:41;;;;;;;0.10;0.10;;;4.60;99.90;;;;;;5054474;28;20565;-65
2022/01/23 01:35:27;;;;;;;0.10;0.10;;;4.70;99.90;;;;;;5072332;28;20024;-65
2022/01/23 01:37:53;;;;;;;0.10;0.10;;;4.70;99.90;;;;;;5069842;28;20481;-65
2022/01/23 01:40:21;;;;;;;0.05;0.05;;;4.70;99.90;;;;;;5062847;28;20086;-66
2022/01/23 01:42:47;;;;;;;0.10;0.10;;;4.70;99.90;;;;;;5070976;28;20505;-65
2022/01/23 01:45:19;;;;;;;0.10;0.10;;;4.70;99.90;;;;;;5051872;28;20036;-65
2022/01/23 01:47:50;;;;;;;0.10;0.10;;;4.70;99.90;;;;;;5064038;28;20056;-65
2022/01/23 01:50:16;;;;;;;0.10;0.10;;;4.70;99.90;;;;;;5069148;28;20060;-65
2022/01/23 01:52:42;;;;;;;0.10;0.10;;;4.70;99.90;;;;;;5069761;28;20043;-65
2022/01/23 01:55:11;;;;;;;0.00;0.00;;;4.70;99.90;;;;;;5069068;28;20119;-65
2022/01/23 01:57:43;;;;;;;0.10;0.10;;;4.70;99.90;;;;;;5070591;28;20028;-65
2022/01/23 02:00:13;;;;;;;0.10;0.10;;;4.70;99.90;;;;;;5070808;28;20077;-65
2022/01/23 02:10:37;;;;;;;0.10;0.10;;;4.70;99.90;;;;;;5067795;28;20111;-66
2022/01/23 02:23:56;;;;;;;0.10;0.10;;;4.60;99.90;;;;;;5054934;28;20086;-66
2022/01/23 02:50:55;;;;;;;0.10;0.10;;;4.60;99.90;;;;;;5053093;28;20044;-65
2022/01/23 02:56:02;;;;;;;0.10;0.10;;;4.60;99.90;;;;;;5071160;28;20028;-65
2022/01/23 02:58:35;;;;;;;0.10;0.10;;;4.60;99.90;;;;;;5065834;28;20031;-65
2022/01/23 03:03:29;;;;;;;0.10;0.10;;;4.70;99.90;;;;;;5069327;28;19958;-65
2022/01/23 03:06:18;;;;;;;0.10;0.10;;;4.60;99.90;;;;;;5049508;28;20032;-65
2022/01/23 03:11:26;;;;;;;0.10;0.10;;;4.70;99.90;;;;;;5069994;28;20075;-65
2022/01/23 03:13:59;;;;;;;0.10;0.10;;;4.60;99.90;;;;;;5069916;28;20512;-64
2022/01/23 03:30:25;;;;;;;0.10;0.10;;;4.60;99.90;;;;;;5070004;28;20043;-64
2022/01/23 03:32:52;;;;;;;0.05;0.05;;;4.70;99.90;;;;;;5066304;28;20021;-64
2022/01/23 03:35:19;;;;;;;0.10;0.10;;;4.60;99.90;;;;;;5064572;28;20048;-64
2022/01/23 03:37:46;;;;;;;0.10;0.10;;;4.60;99.90;;;;;;5057423;28;20482;-64
2022/01/23 03:40:12;;;;;;;0.10;0.10;;;4.70;99.90;;;;;;5051779;28;20151;-65
2022/01/23 03:42:41;;;;;;;0.20;0.20;;;4.60;99.90;;;;;;5050756;28;20028;-65
2022/01/23 03:47:41;;;;;;;0.68;0.68;;;4.70;99.90;;;;;;5069128;28;20032;-66
2022/01/23 03:50:10;;;;;;;0.32;0.32;;;4.70;99.90;;;;;;5063301;28;20024;-64
2022/01/23 03:52:37;;;;;;;0.10;0.10;;;4.70;99.90;;;;;;5058324;28;20017;-64
2022/01/23 03:55:05;;;;;;;0.10;0.10;;;4.70;99.90;;;;;;5035159;28;20032;-65
2022/01/23 03:57:31;;;;;;;2.85;2.67;;;4.70;99.90;;;;;;5047411;28;20017;-65
2022/01/23 03:59:57;;;;;;;0.10;0.10;;;4.80;99.90;;;;;;5031090;28;20222;-65
2022/01/23 04:02:23;;;;;;;0.10;0.10;;;4.80;99.90;;;;;;5063278;28;20473;-65
2022/01/23 04:04:48;;;;;;;0.10;0.10;;;4.70;99.90;;;;;;5069514;28;20550;-64
2022/01/23 04:07:22;;;;;;;0.10;0.10;;;4.70;99.90;;;;;;5065797;28;20028;-64
2022/01/23 04:09:48;;;;;;;0.10;0.10;;;4.80;99.90;;;;;;5064593;28;20029;-64
2022/01/23 04:14:53;;;;;;;0.10;0.10;;;4.60;99.90;;;;;;5069819;28;20430;-64
2022/01/23 05:00:36;;;;;;;0.10;0.10;;;4.50;99.90;;;;;;5069302;28;20185;-65
2022/01/23 05:05:37;;;;;;;0.03;0.03;;;4.50;99.90;;;;;;5069802;28;20036;-65
2022/01/23 05:08:06;;;;;;;0.10;0.10;;;4.60;99.90;;;;;;5052923;28;20036;-65
2022/01/23 05:10:33;;;;;;;0.10;0.10;;;4.60;99.90;;;;;;5067028;28;20246;-65
2022/01/23 05:12:59;;;;;;;0.00;0.00;;;4.70;99.90;;;;;;5068382;28;20501;-65
2022/01/23 05:15:25;;;;;;;0.15;0.15;;;4.70;99.90;;;;;;5070243;28;20111;-65
2022/01/23 05:17:51;;;;;;;0.00;0.00;;;4.70;99.90;;;;;;5066935;28;20565;-65
2022/01/23 05:20:19;;;;;;;0.10;0.10;;;4.70;99.90;;;;;;5048365;28;20108;-65
2022/01/23 05:22:51;;;;;;;0.10;0.10;;;4.70;99.90;;;;;;5069585;28;20024;-65
2022/01/23 05:25:24;;;;;;;0.10;0.10;;;4.70;99.90;;;;;;5071390;28;20032;-65
2022/01/23 05:27:52;;;;;;;;;;;4.70;99.90;;;;;;5069084;28;20025;-65
2022/01/23 05:30:18;;;;;;;1.58;1.38;;;4.70;99.90;;;;;;5069326;28;19916;-65
2022/01/23 05:32:44;;;;;;;0.20;0.20;;;4.70;99.90;;;;;;5070661;28;20404;-65
2022/01/23 05:35:13;;;;;;;0.20;0.20;;;4.90;99.90;;;;;;5070227;28;20504;-65
2022/01/23 05:37:39;;;;;;;0.10;0.10;;;4.80;99.90;;;;;;5067395;28;20025;-65
2022/01/23 05:40:08;;;;;;;0.10;0.10;;;4.70;99.90;;;;;;5073458;28;20114;-66
2022/01/23 05:42:34;;;;;;;0.10;0.10;;;4.70;99.90;;;;;;5069710;28;20035;-65
2022/01/23 05:44:59;;;;;;;0.95;0.95;;;4.60;99.90;;;;;;5068340;28;20404;-67
2022/01/23 05:47:25;;;;;;;0.10;0.10;;;4.60;99.90;;;;;;5073876;28;20489;-65
2022/01/23 05:49:51;;;;;;;0.10;0.10;;;4.50;99.90;;;;;;5069141;28;20025;-64
2022/01/23 05:52:16;;;;;;;0.30;0.30;;;4.60;99.90;;;;;;5071450;28;20379;-65
2022/01/23 05:54:42;;;;;;;0.10;0.10;;;4.60;99.90;;;;;;5070882;28;20532;-65
2022/01/23 05:57:08;;;;;;;0.10;0.10;;;4.50;99.90;;;;;;5068667;28;20542;-65
2022/01/23 05:59:33;;;;;;;0.10;0.10;;;4.40;99.90;;;;;;5067331;28;20127;-65
2022/01/23 06:01:59;;;;;;;0.10;0.10;;;4.50;99.90;;;;;;5070977;28;20143;-66
2022/01/23 06:04:26;;;;;;;0.10;0.10;;;4.50;99.90;;;;;;5071666;28;20031;-66
2022/01/23 06:06:53;;;;;;;0.35;0.35;;;4.50;99.90;;;;;;5071189;28;20648;-65
2022/01/23 06:09:20;;;;;;;0.20;0.20;;;4.50;99.90;;;;;;5059464;28;20069;-64
2022/01/23 06:11:47;;;;;;;0.70;0.70;;;4.50;99.90;;;;;;5070626;28;20063;-66
2022/01/23 06:14:12;;;;;;;0.10;0.10;;;4.60;99.90;;;;;;5070986;28;20025;-66
2022/01/23 06:16:38;;;;;;;0.10;0.10;;;4.60;99.90;;;;;;5067014;28;20035;-67
2022/01/23 06:19:04;;;;;;;0.20;0.20;;;4.70;99.90;;;;;;5032768;28;20055;-66
2022/01/23 06:21:31;;;;;;;0.47;0.47;;;4.60;99.90;;;;;;5032777;28;20669;-64
2022/01/23 06:24:14;;;;;;;0.10;0.10;;;4.50;99.90;;;;;;5053621;28;20028;-65
2022/01/23 06:26:46;;;;;;;0.10;0.10;;;4.50;99.90;;;;;;5066148;28;20036;-65
2022/01/23 06:29:14;;;;;;;0.10;0.10;;;4.50;99.90;;;;;;5069701;28;20017;-65
2022/01/23 06:31:41;;;;;;;0.10;0.10;;;4.50;99.90;;;;;;5052934;28;20123;-65
2022/01/23 06:34:07;;;;;;;0.10;0.10;;;4.50;99.90;;;;;;5056520;28;20025;-64
2022/01/23 06:36:34;;;;;;;0.20;0.20;;;4.50;99.90;;;;;;5032533;28;20412;-64
2022/01/23 06:39:03;;;;;;;0.10;0.10;;;4.50;99.90;;;;;;5050287;28;20079;-64
2022/01/23 06:41:29;;;;;;;0.10;0.10;;;4.50;99.90;;;;;;5057798;28;20111;-65
2022/01/23 06:43:54;;;;;;;0.20;0.20;;;4.50;99.90;;;;;;5070417;28;20331;-64
2022/01/23 06:46:20;;;;;;;0.10;0.10;;;4.60;99.90;;;;;;5070238;28;20048;-65
2022/01/23 06:48:46;;;;;;;0.10;0.10;;;4.70;99.90;;;;;;5069988;28;20522;-66
2022/01/23 06:51:11;;;;;;;0.10;0.10;;;4.80;99.90;;;;;;5066696;28;20043;-66
2022/01/23 06:53:37;;;;;;;0.10;0.10;;;4.80;99.90;;;;;;5062883;28;20021;-65
2022/01/23 06:56:03;;;;;;;0.10;0.10;;;4.40;99.90;;;;;;5059767;28;20478;-65
2022/01/23 06:58:28;;;;;;;0.10;0.10;;;4.70;99.90;;;;;;5066963;28;20103;-63
2022/01/23 07:00:54;;;;;;;0.10;0.10;;;4.70;99.90;;;;;;5049956;28;20458;-65
2022/01/23 07:03:20;;;;;;;0.10;0.10;;;4.70;99.90;;;;;;5050049;28;20460;-66
2022/01/23 07:05:45;;;;;;;0.57;0.57;;;4.60;99.90;;;;;;5064757;28;20138;-64
2022/01/23 07:08:11;;;;;;;0.98;0.98;;;4.70;99.90;;;;;;5064879;28;20025;-64
2022/01/23 07:10:37;;;;;;;0.10;0.10;;;4.70;99.90;;;;;;5062990;28;20485;-65
2022/01/23 07:13:02;;;;;;;0.10;0.10;;;4.60;99.90;;;;;;5069658;28;20028;-65
2022/01/23 07:15:28;;;;;;;0.10;0.10;;;4.70;99.90;;;;;;5069892;28;20057;-65
2022/01/23 07:17:54;;;;;;;0.10;0.10;;;4.70;99.90;;;;;;5069306;28;20029;-65
2022/01/23 07:20:19;;;;;;;0.10;0.10;;;4.70;99.90;;;;;;5069491;28;20054;-65
2022/01/23 07:22:45;;;;;;;0.10;0.10;;;4.60;99.90;;;;;;5061346;28;20028;-65
2022/01/23 07:25:11;;;;;;;0.10;0.10;;;4.60;99.90;;;;;;5057929;28;20025;-66
2022/01/23 07:27:42;;;;;;;0.13;0.13;;;4.70;99.90;;;;;;5049503;28;20039;-66
2022/01/23 07:30:21;;;;;;;0.08;0.08;;;4.60;99.90;;;;;;5050131;28;20033;-64
2022/01/23 07:32:46;;;;;;;0.38;0.38;;;4.70;99.90;;;;;;5049924;28;20043;-65
2022/01/23 07:35:12;;;;;;;0.10;0.10;;;4.70;99.90;;;;;;5056922;28;20025;-65
2022/01/23 07:37:37;;;;;;;0.85;0.85;;;4.70;99.90;;;;;;5069277;28;20025;-65
2022/01/23 07:40:04;;;;;;;0.10;0.10;;;4.80;99.90;;;;;;5069427;28;20037;-66
2022/01/23 07:42:29;;;;;;;0.30;0.30;;;4.80;99.90;;;;;;5066128;28;20035;-66
2022/01/23 07:44:55;;;;;;;0.20;0.20;;;4.70;99.90;;;;;;5051461;28;20029;-66
2022/01/23 07:47:22;;;;;;;0.10;0.10;;;4.70;99.90;;;;;;5067965;28;20020;-66
2022/01/23 07:49:49;;;;;;;0.10;0.10;;;4.80;99.90;;;;;;5068597;28;20021;-66
2022/01/23 07:52:16;;;;;;;0.10;0.10;;;4.80;99.90;;;;;;5068806;28;20021;-65
2022/01/23 07:54:42;;;;;;;0.10;0.10;;;4.80;99.90;;;;;;5068571;28;20495;-65
2022/01/23 07:57:08;;;;;;;0.10;0.10;;;4.80;99.90;;;;;;5067035;28;20033;-65
2022/01/23 07:59:34;;;;;;;0.10;0.10;;;4.70;99.90;;;;;;5043629;28;20028;-66
2022/01/23 08:02:00;;;;;;;0.10;0.10;;;4.80;99.90;;;;;;5068150;28;20028;-66
2022/01/23 08:04:26;;;;;;;0.10;0.10;;;4.80;99.90;;;;;;5068846;28;20122;-65
2022/01/23 08:07:07;;;;;;;0.20;0.20;;;4.90;99.90;;;;;;5069558;28;20040;-67
2022/01/23 08:09:33;;;;;;;0.10;0.10;;;4.90;99.90;;;;;;5059296;28;20025;-66
2022/01/23 08:11:59;;;;;;;0.10;0.10;;;4.90;99.90;;;;;;5050761;28;20033;-66
2022/01/23 08:14:25;;;;;;;0.10;0.10;;;4.90;99.90;;;;;;5049402;28;20082;-66
2022/01/23 08:16:50;;;;;;;0.10;0.10;;;4.90;99.90;;;;;;5055935;28;20125;-67
2022/01/23 08:19:16;;;;;;;0.80;0.80;;;4.90;99.90;;;;;;5061401;28;20028;-65
2022/01/23 08:21:42;;;;;;;0.10;0.10;;;5.00;99.90;;;;;;5051040;28;20600;-65
2022/01/23 08:24:07;;;;;;;0.10;0.10;;;4.90;99.90;;;;;;5055967;28;20342;-66
2022/01/23 08:26:33;;;;;;;0.20;0.20;;;5.00;99.90;;;;;;5068399;28;20047;-66
2022/01/23 08:29:00;;;;;;;0.10;0.10;;;5.00;99.90;;;;;;5058664;28;20106;-65
2022/01/23 08:31:26;;;;;;;0.10;0.10;;;5.00;99.90;;;;;;5048830;28;20023;-65
2022/01/23 08:33:53;;;;;;;0.10;0.10;;;5.00;99.90;;;;;;5063192;28;20037;-64
2022/01/23 08:36:19;;;;;;;0.10;0.10;;;5.20;99.90;;;;;;5068339;28;20474;-66
2022/01/23 08:38:45;;;;;;;0.20;0.20;;;5.10;99.90;;;;;;5059980;28;20032;-65
2022/01/23 08:43:55;;;;;;;0.10;0.10;;;5.10;99.90;;;;;;5067392;28;20110;-65
2022/01/23 08:46:21;;;;;;;0.20;0.20;;;5.00;99.90;;;;;;5068469;28;20078;-65
2022/01/23 08:48:47;;;;;;;0.10;0.10;;;5.10;99.90;;;;;;5071072;28;20032;-66
2022/01/23 08:51:13;;;;;;;0.20;0.20;;;5.00;99.90;;;;;;5069370;28;20024;-66
2022/01/23 08:53:39;;;;;;;0.10;0.10;;;5.10;99.90;;;;;;5051680;28;20390;-65
2022/01/23 08:56:05;;;;;;;0.47;0.47;;;5.20;99.90;;;;;;5072550;28;20033;-65
2022/01/23 08:58:31;;;;;;;0.10;0.10;;;5.30;99.90;;;;;;5071990;28;20493;-65
2022/01/23 09:00:57;;;;;;;0.10;0.10;;;5.30;99.90;;;;;;5071924;28;20048;-65
2022/01/23 09:03:22;;;;;;;0.68;0.68;;;5.40;99.90;;;;;;5067198;28;20070;-65
2022/01/23 09:05:48;;;;;;;0.10;0.10;;;5.20;99.90;;;;;;5049912;28;20108;-65
2022/01/23 09:08:13;;;;;;;0.15;0.15;;;5.20;99.90;;;;;;5080150;28;20461;-66
2022/01/23 09:10:52;;;;;;;0.20;0.20;;;5.30;99.90;;;;;;5069989;28;20024;-64
2022/01/23 09:16:02;;;;;;;0.10;0.10;;;5.20;99.90;;;;;;5063727;28;20547;-66
2022/01/23 09:18:28;;;;;;;0.10;0.10;;;5.40;99.90;;;;;;5076728;28;20040;-65
2022/01/23 09:20:54;;;;;;;0.10;0.10;;;5.60;99.90;;;;;;5071342;28;20361;-66
2022/01/23 09:23:19;;;;;;;0.10;0.10;;;5.40;99.90;;;;;;5051864;28;20120;-66
2022/01/23 09:25:45;;;;;;;0.10;0.10;;;5.40;99.90;;;;;;5064572;28;20031;-66
2022/01/23 09:28:13;;;;;;;0.10;0.10;;;5.50;99.90;;;;;;5068828;28;20044;-65
2022/01/23 09:30:43;;;;;;;0.10;0.10;;;5.50;99.90;;;;;;5069742;28;20048;-65
2022/01/23 09:33:09;;;;;;;0.10;0.10;;;5.60;99.90;;;;;;5070163;28;20027;-66
2022/01/23 09:35:34;;;;;;;0.10;0.10;;;5.70;99.90;;;;;;5073337;28;20028;-66
2022/01/23 09:38:00;;;;;;;0.70;0.70;;;5.60;99.90;;;;;;5071222;28;20067;-66
2022/01/23 09:40:26;;;;;;;0.10;0.10;;;5.60;99.90;;;;;;5069408;28;20033;-66
2022/01/23 09:43:02;;;;;;;0.10;0.10;;;5.60;99.90;;;;;;5071475;28;20047;-66
2022/01/23 09:45:29;;;;;;;0.10;0.10;;;5.70;99.90;;;;;;5071322;28;20446;-66
2022/01/23 09:47:55;;;;;;;0.10;0.10;;;5.90;99.90;;;;;;5070149;28;20023;-67
2022/01/23 09:50:21;;;;;;;0.57;0.57;;;6.10;99.90;;;;;;5074775;28;20024;-65
2022/01/23 09:52:47;;;;;;;0.10;0.10;;;6.10;99.90;;;;;;5073520;28;20024;-65
2022/01/23 09:55:13;;;;;;;0.10;0.10;;;6.10;99.90;;;;;;5069415;28;20043;-65
2022/01/23 09:57:44;;;;;;;1.17;0.98;;;6.00;99.90;;;;;;5066690;28;20020;-65
2022/01/23 10:00:16;;;;;;;0.20;0.20;;;6.10;99.90;;;;;;5064359;28;20448;-65
2022/01/23 10:02:42;;;;;;;0.38;0.38;;;6.00;99.90;;;;;;5086299;28;20096;-67
2022/01/23 10:05:09;;;;;;;0.10;0.10;;;6.10;99.90;;;;;;5075558;28;20028;-65
2022/01/23 10:07:39;;;;;;;0.10;0.10;;;6.10;99.90;;;;;;5069537;28;20116;-65
2022/01/23 10:10:12;;;;;;;0.82;0.82;;;6.00;99.90;;;;;;5068096;28;20029;-65
2022/01/23 10:12:50;;;;;;;0.10;0.10;;;6.10;99.90;;;;;;5061891;28;20033;-65
2022/01/23 10:15:18;;;;;;;0.10;0.10;;;6.10;99.90;;;;;;5072878;28;20035;-65
2022/01/23 10:17:44;;;;;;;0.10;0.10;;;6.20;99.90;;;;;;5067637;28;20033;-65
2022/01/23 10:20:11;;;;;;;0.10;0.10;;;6.10;99.90;;;;;;5067958;28;20039;-66
2022/01/23 10:22:40;;;;;;;0.10;0.10;;;6.20;99.90;;;;;;5069044;28;20111;-70
2022/01/23 10:25:17;;;;;;;0.10;0.10;;;6.20;99.90;;;;;;5070289;28;20031;-67
2022/01/23 10:28:03;;;;;;;0.10;0.10;;;6.30;99.90;;;;;;5069269;28;20020;-66
2022/01/23 10:30:41;;;;;;;0.10;0.10;;;6.40;99.90;;;;;;5065093;28;20025;-66
2022/01/23 10:33:37;;;;;;;0.10;0.10;;;6.60;99.90;;;;;;5067421;28;20328;-67
2022/01/23 10:36:05;;;;;;;0.20;0.20;;;6.70;99.90;;;;;;5070144;28;20117;-67
2022/01/23 10:38:43;;;;;;;0.10;0.10;;;6.60;99.90;;;;;;5073093;28;20062;-68
2022/01/23 10:50:06;;;;;;;0.10;0.10;;;6.70;99.90;;;;;;5077302;28;20032;-67
2022/01/23 10:52:40;;;;;;;0.20;0.20;;;6.70;99.90;;;;;;5073255;28;20039;-67
2022/01/23 10:55:12;;;;;;;0.10;0.10;;;6.80;99.90;;;;;;5077693;28;20020;-68
2022/01/23 10:57:44;;;;;;;0.10;0.10;;;6.60;99.90;;;;;;5075582;28;20055;-68
2022/01/23 11:00:31;;;;;;;0.10;0.10;;;6.60;99.90;;;;;;5070435;28;20045;-64
2022/01/23 11:02:59;;;;;;;0.10;0.10;;;6.60;99.90;;;;;;5067683;28;20170;-65
2022/01/23 11:05:31;;;;;;;1.02;0.95;;;6.60;99.90;;;;;;5054505;28;20020;-66
2022/01/23 11:07:57;;;;;;;1.15;1.15;;;6.60;99.90;;;;;;5069720;28;20032;-67
2022/01/23 11:10:23;;;;;;;0.10;0.10;;;6.50;99.90;;;;;;5036927;28;20378;-66
2022/01/23 11:18:12;;;;;;;0.47;0.47;;;6.80;99.90;;;;;;5072225;28;20036;-66
2022/01/23 11:20:45;;;;;;;1.98;1.88;;;6.70;99.90;;;;;;5079127;28;20062;-66
2022/01/23 11:23:27;;;;;;;0.10;0.10;;;6.80;99.90;;;;;;5074737;28;20034;-65
2022/01/23 11:25:55;;;;;;;0.10;0.10;;;6.80;99.90;;;;;;5077574;28;20028;-66
2022/01/23 11:28:28;;;;;;;0.10;0.10;;;6.90;99.90;;;;;;5079381;28;20021;-67
2022/01/23 11:30:54;;;;;;;0.57;0.57;;;7.00;99.90;;;;;;5079185;28;20442;-66
2022/01/23 11:33:21;;;;;;;0.10;0.10;;;7.00;99.90;;;;;;5056549;28;20032;-66
2022/01/23 11:35:47;;;;;;;0.10;0.10;;;6.90;99.90;;;;;;5060984;28;20445;-65
2022/01/23 11:38:17;;;;;;;0.10;0.10;;;6.80;99.90;;;;;;5075395;28;20054;-66
2022/01/23 11:54:45;;;;;;;0.10;0.10;;;6.80;99.90;;;;;;5075478;28;20078;-68
2022/01/23 11:57:38;;;;;;;0.30;0.30;;;7.00;99.90;;;;;;5076966;28;20072;-68
2022/01/23 12:00:12;;;;;;;0.13;0.13;;;7.00;99.90;;;;;;5057024;28;20036;-67
2022/01/23 12:02:41;;;;;;;0.10;0.10;;;7.00;99.90;;;;;;5077017;28;20062;-67
2022/01/23 12:05:17;;;;;;;0.10;0.10;;;7.10;99.90;;;;;;5068900;28;20024;-67
2022/01/23 12:08:05;;;;;;;0.30;0.30;;;7.10;99.90;;;;;;5060105;28;20023;-68
2022/01/23 12:10:47;;;;;;;0.10;0.10;;;6.90;99.90;;;;;;5069344;28;20016;-67
2022/01/23 12:13:44;;;;;;;0.10;0.10;;;6.90;99.90;;;;;;5057423;28;20017;-66
2022/01/23 12:16:30;;;;;;;1.85;1.75;;;7.00;99.90;;;;;;5072139;28;20040;-67
2022/01/23 12:19:21;;;;;;;0.10;0.10;;;6.90;99.90;;;;;;5076698;28;20036;-68
2022/01/23 12:21:50;;;;;;;0.10;0.10;;;7.00;99.90;;;;;;5076418;28;20028;-66
2022/01/23 12:24:17;;;;;;;0.10;0.10;;;6.90;99.90;;;;;;5072330;28;20024;-67
2022/01/23 12:26:44;;;;;;;1.85;1.33;;;6.70;99.90;;;;;;5072080;28;20478;-66
2022/01/23 12:29:20;;;;;;;0.10;0.10;;;6.80;99.90;;;;;;5074724;28;20032;-67
2022/01/23 12:31:46;;;;;;;0.10;0.10;;;6.70;99.90;;;;;;5075539;28;20649;-67
2022/01/23 12:34:12;;;;;;;0.20;0.20;;;6.70;99.90;;;;;;5076157;28;20021;-68
2022/01/23 12:36:40;;;;;;;1.38;1.27;;;6.80;99.90;;;;;;5077687;28;20039;-69
2022/01/23 12:39:08;;;;;;;0.10;0.10;;;6.90;99.90;;;;;;5081338;28;20038;-68
2022/01/23 12:41:38;;;;;;;0.20;0.20;;;6.90;99.90;;;;;;5079133;28;20027;-68
2022/01/23 12:44:06;;;;;;;0.10;0.10;;;6.90;99.90;;;;;;5074774;28;20028;-68
2022/01/23 12:46:53;;;;;;;0.10;0.10;;;6.90;99.90;;;;;;5062117;28;20079;-68
2022/01/23 12:49:45;;;;;;;0.10;0.10;;;7.00;99.90;;;;;;5080985;28;20020;-67
2022/01/23 12:52:11;;;;;;;0.10;0.10;;;7.10;99.90;;;;;;5076009;28;20030;-67
2022/01/23 12:54:53;;;;;;;0.15;0.15;;;6.90;99.90;;;;;;5079827;28;20082;-67
2022/01/23 12:57:20;;;;;;;0.20;0.20;;;7.10;99.90;;;;;;5078644;28;20516;-68
2022/01/23 13:00:12;;;;;;;0.03;0.03;;;7.00;99.90;;;;;;5089140;22;20044;-75
2022/01/23 13:02:44;;;;;;;0.10;0.10;;;7.10;99.90;;;;;;5077499;28;20497;-74
2022/01/23 13:05:11;;;;;;;0.10;0.10;;;7.10;99.90;;;;;;5074883;28;20041;-79
2022/01/23 13:13:04;;;;;;;;;;;7.10;99.90;;;;;;5076720;28;20520;-75
2022/01/23 13:18:32;;;;;;;0.10;0.10;;;7.10;99.90;;;;;;5075781;28;20036;-76
2022/01/23 13:32:06;;;;;;;0.10;0.10;;;7.20;99.90;;;;;;5082006;28;20121;-76
2022/01/23 13:34:35;;;;;;;0.10;0.10;;;7.00;99.90;;;;;;5070485;28;20124;-83
2022/01/23 13:37:04;;;;;;;0.10;0.10;;;7.00;99.90;;;;;;5058808;28;20055;-81
2022/01/23 13:39:49;;;;;;;0.17;0.17;;;7.00;99.90;;;;;;5080622;28;20030;-81
2022/01/23 13:54:03;;;;;;;0.10;0.10;;;7.00;99.90;;;;;;5078942;28;20381;-80
2022/01/23 14:00:25;;;;;;;0.10;0.10;;;6.80;99.90;;;;;;5078021;28;20389;-80
2022/01/23 14:02:23;;;;;;;0.10;0.10;;;6.90;99.90;;;;;;5062377;28;20346;-80
2022/01/23 14:05:03;;;;;;;0.10;0.10;;;7.00;99.90;;;;;;5079229;28;20054;-81
2022/01/23 14:07:29;;;;;;;0.10;0.10;;;6.90;99.90;;;;;;5075619;28;20025;-81
2022/01/23 14:09:58;;;;;;;0.10;0.10;;;7.00;99.90;;;;;;5078682;28;20020;-81
2022/01/23 14:12:26;;;;;;;0.10;0.10;;;7.00;99.90;;;;;;5080064;28;20031;-81
2022/01/23 14:15:08;;;;;;;0.10;0.10;;;6.90;99.90;;;;;;5080456;28;20062;-79
2022/01/23 14:17:39;;;;;;;0.15;0.15;;;6.80;99.90;;;;;;5079686;28;20516;-81
2022/01/23 14:20:08;;;;;;;0.10;0.10;;;6.90;99.90;;;;;;5076861;28;20182;-79
2022/01/23 14:22:39;;;;;;;0.10;0.10;;;6.60;99.90;;;;;;5079491;28;20028;-80
2022/01/23 14:25:27;;;;;;;0.10;0.10;;;6.80;99.90;;;;;;5077370;28;20112;-80
2022/01/23 14:28:14;;;;;;;0.10;0.10;;;6.90;99.90;;;;;;5076429;28;20024;-80
2022/01/23 14:30:53;;;;;;;0.10;0.10;;;6.90;99.90;;;;;;5079117;28;20020;-80
2022/01/23 14:33:25;;;;;;;0.10;0.10;;;6.90;99.90;;;;;;5081250;28;20103;-81
2022/01/23 14:35:51;;;;;;;0.10;0.10;;;6.80;99.90;;;;;;5080725;28;20035;-81
2022/01/23 14:38:28;;;;;;;0.10;0.10;;;6.70;99.90;;;;;;5061170;28;20501;-81
2022/01/23 14:41:09;;;;;;;0.10;0.10;;;6.80;99.90;;;;;;5073819;28;20028;-76
2022/01/23 14:43:42;;;;;;;1.50;1.45;;;6.80;99.90;;;;;;5075017;28;20020;-77
2022/01/23 14:46:10;;;;;;;0.10;0.10;;;6.70;99.90;;;;;;5058914;28;20066;-79
2022/01/23 14:48:41;;;;;;;0.10;0.10;;;6.70;99.90;;;;;;5076561;28;20493;-82
2022/01/23 14:51:08;;;;;;;0.10;0.10;;;6.50;99.90;;;;;;5075911;28;20032;-81
2022/01/23 14:53:37;;;;;;;0.38;0.38;;;6.50;99.90;;;;;;5071092;28;20119;-81
2022/01/23 14:56:05;;;;;;;0.10;0.10;;;7.10;99.90;;;;;;5079931;28;20024;-80
2022/01/23 14:58:33;;;;;;;0.10;0.10;;;6.50;99.90;;;;;;5079956;28;20017;-80
2022/01/23 15:00:59;;;;;;;0.10;0.10;;;7.20;99.90;;;;;;5075096;28;20028;-80
2022/01/23 15:03:27;;;;;;;0.10;0.10;;;6.50;99.90;;;;;;5078412;28;20021;-79
2022/01/23 15:05:54;;;;;;;0.10;0.10;;;6.50;99.90;;;;;;5081147;28;20477;-79
2022/01/23 15:08:24;;;;;;;0.10;0.10;;;6.40;99.90;;;;;;5078274;28;20031;-79
2022/01/23 15:10:51;;;;;;;0.10;0.10;;;6.40;99.90;;;;;;5078185;28;20017;-78
2022/01/23 15:13:19;;;;;;;0.10;0.10;;;6.40;99.90;;;;;;5077801;28;20023;-79
2022/01/23 15:15:46;;;;;;;0.10;0.10;;;6.30;99.90;;;;;;5080274;28;20381;-77
2022/01/23 15:18:13;;;;;;;0.10;0.10;;;6.30;99.90;;;;;;5077637;28;20039;-73
2022/01/23 15:20:39;;;;;;;0.10;0.10;;;6.30;99.90;;;;;;5075873;28;20078;-73
2022/01/23 15:23:06;;;;;;;0.10;0.10;;;6.20;99.90;;;;;;5080368;28;20036;-74
2022/01/23 15:25:32;;;;;;;0.10;0.10;;;6.30;99.90;;;;;;5079901;28;20040;-74
2022/01/23 15:27:59;;;;;;;0.10;0.10;;;6.20;99.90;;;;;;5077551;28;20072;-74
2022/01/23 15:30:26;;;;;;;0.10;0.10;;;6.20;99.90;;;;;;5078083;28;20016;-75
2022/01/23 15:32:53;;;;;;;0.10;0.10;;;6.30;99.90;;;;;;5077246;28;20024;-75
2022/01/23 15:35:22;;;;;;;0.10;0.10;;;6.30;99.90;;;;;;5073583;28;20016;-76
2022/01/23 15:37:48;;;;;;;0.20;0.20;;;6.30;99.90;;;;;;5076900;28;20089;-74
2022/01/23 15:40:15;;;;;;;0.10;0.10;;;6.30;99.90;;;;;;5078755;28;20036;-76
2022/01/23 15:42:42;;;;;;;0.10;0.10;;;6.30;99.90;;;;;;5080053;28;20020;-76
2022/01/23 15:45:09;;;;;;;0.10;0.10;;;6.30;99.90;;;;;;5078413;28;20016;-77
2022/01/23 15:47:35;;;;;;;0.10;0.10;;;6.20;99.90;;;;;;5077539;28;20020;-76
2022/01/23 15:50:05;;;;;;;0.10;0.10;;;6.20;99.90;;;;;;5054302;28;20139;-74
2022/01/23 15:52:31;;;;;;;0.10;0.10;;;6.10;99.90;;;;;;5074474;28;20035;-75
2022/01/23 15:54:56;;;;;;;0.10;0.10;;;6.20;99.90;;;;;;5071532;28;20032;-74
2022/01/23 15:57:22;;;;;;;0.10;0.10;;;6.20;99.90;;;;;;5071860;28;20042;-79
2022/01/23 15:59:48;;;;;;;0.10;0.10;;;6.20;99.90;;;;;;5071603;28;20046;-75
2022/01/23 16:02:14;;;;;;;0.10;0.10;;;6.20;99.90;;;;;;5074356;28;20074;-79
2022/01/23 16:04:40;;;;;;;0.00;0.00;;;6.20;99.90;;;;;;5079213;28;20017;-76
2022/01/23 16:07:07;;;;;;;0.10;0.10;;;6.20;99.90;;;;;;5076815;28;20016;-75
2022/01/23 16:09:34;;;;;;;0.10;0.10;;;6.20;99.90;;;;;;5077771;28;20428;-74
2022/01/23 16:12:00;;;;;;;0.10;0.10;;;6.20;99.90;;;;;;5080495;28;20541;-81
2022/01/23 16:14:26;;;;;;;0.10;0.10;;;6.20;99.90;;;;;;5082253;28;20072;-79
2022/01/23 16:16:51;;;;;;;0.10;0.10;;;6.20;99.90;;;;;;5080624;28;20028;-81
2022/01/23 16:19:17;;;;;;;0.10;0.10;;;6.00;99.90;;;;;;5078811;28;20478;-80
2022/01/23 16:21:44;;;;;;;0.10;0.10;;;6.00;99.90;;;;;;5072825;28;20051;-76
2022/01/23 16:24:11;;;;;;;0.10;0.10;;;6.00;99.90;;;;;;5059878;28;20073;-75
2022/01/23 16:26:37;;;;;;;1.02;1.02;;;6.00;99.90;;;;;;5072048;28;20020;-80
2022/01/23 16:29:03;;;;;;;0.10;0.10;;;6.00;99.90;;;;;;5075944;28;20029;-83
2022/01/23 16:31:30;;;;;;;0.10;0.10;;;5.90;99.90;;;;;;5070390;28;20733;-77
2022/01/23 16:33:55;;;;;;;0.10;0.10;;;6.00;99.90;;;;;;5071873;28;20127;-75
2022/01/23 16:36:21;;;;;;;0.10;0.10;;;6.00;99.90;;;;;;5070497;28;20459;-76
2022/01/23 16:38:47;;;;;;;0.10;0.10;;;6.00;99.90;;;;;;5067043;28;20025;-82
2022/01/23 16:41:13;;;;;;;0.10;0.10;;;6.00;99.90;;;;;;5073320;28;20031;-81
2022/01/23 16:43:40;;;;;;;0.10;0.10;;;6.00;99.90;;;;;;5071543;28;20056;-81
2022/01/23 16:46:06;;;;;;;0.10;0.10;;;6.00;99.90;;;;;;5077792;28;20166;-82
2022/01/23 16:48:32;;;;;;;0.10;0.10;;;5.90;99.90;;;;;;5086888;28;20108;-82